Time;durP1;ratioP1;P1;durP2;ratioP2;P2;SDS_P1;SDS_P2;PMS_P1;PMS_P2;Temp;Humidity;BMP_temperature;BMP_pressure;BME280_temperature;BME280_humidity;BME280_pressure;Samples;Min_cycle;Max_cycle;Signal;HPM_P1;HPM_P2
2022/06/22 00:01:44;;;;;;;;;;;11.50;99.90;;;;;;5126130;27;19916;-53
2022/06/22 00:04:28;;;;;;;;;;;11.50;99.90;;;;;;5126027;27;19926;-53
2022/06/22 00:07:13;;;;;;;;;;;11.50;99.90;;;;;;5105524;27;19961;-52
2022/06/22 00:09:55;;;;;;;;;;;11.40;99.90;;;;;;5146803;27;19919;-54
2022/06/22 00:12:35;;;;;;;;;;;11.50;99.90;;;;;;5125863;27;19918;-52
2022/06/22 00:15:22;;;;;;;;;;;11.40;99.90;;;;;;5105055;27;20328;-53
2022/06/22 00:18:04;;;;;;;;;;;11.50;99.90;;;;;;5125908;27;19915;-54
2022/06/22 00:20:49;;;;;;;;;;;11.40;99.90;;;;;;5110093;27;19912;-53
2022/06/22 00:23:34;;;;;;;;;;;11.40;99.90;;;;;;5126018;27;19927;-54
2022/06/22 00:26:20;;;;;;;;;;;11.30;99.90;;;;;;5125892;27;19912;-54
2022/06/22 00:29:06;;;;;;;;;;;11.30;99.90;;;;;;5124849;27;20304;-53
2022/06/22 00:31:58;;;;;;;;;;;11.30;99.90;;;;;;5125999;27;19912;-52
2022/06/22 00:34:39;;;;;;;;;;;11.30;99.90;;;;;;5125918;27;19915;-54
2022/06/22 00:37:19;;;;;;;;;;;11.20;99.90;;;;;;5125741;27;19918;-52
2022/06/22 00:40:02;;;;;;;;;;;11.20;99.90;;;;;;5116457;27;19919;-53
2022/06/22 00:42:42;;;;;;;;;;;11.30;99.90;;;;;;5125545;27;19912;-54
2022/06/22 00:45:24;;;;;;;;;;;11.20;99.90;;;;;;5125821;27;19911;-54
2022/06/22 00:48:07;;;;;;;;;;;11.20;99.90;;;;;;5105210;27;19926;-53
2022/06/22 00:50:53;;;;;;;;;;;11.20;99.90;;;;;;5109637;27;19926;-53
2022/06/22 00:53:36;;;;;;;;;;;11.20;99.90;;;;;;5125692;27;19918;-54
2022/06/22 00:56:21;;;;;;;;;;;11.30;99.90;;;;;;5126405;27;19911;-52
2022/06/22 00:59:03;;;;;;;;;;;11.30;99.90;;;;;;5124701;27;19911;-52
2022/06/22 01:01:47;;;;;;;;;;;11.30;99.90;;;;;;5125890;27;19912;-52
2022/06/22 01:04:31;;;;;;;;;;;11.20;99.90;;;;;;5098996;27;19989;-52
2022/06/22 01:07:16;;;;;;;;;;;11.20;99.90;;;;;;5123724;27;19912;-53
2022/06/22 01:09:59;;;;;;;;;;;11.20;99.90;;;;;;5116650;27;19912;-53
2022/06/22 01:12:42;;;;;;;;;;;11.20;99.90;;;;;;5105097;27;19916;-51
2022/06/22 01:15:24;;;;;;;;;;;11.10;99.90;;;;;;5126008;27;19918;-52
2022/06/22 01:18:07;;;;;;;;;;;11.10;99.90;;;;;;5125873;27;19912;-52
2022/06/22 01:20:52;;;;;;;;;;;11.10;99.90;;;;;;5109366;27;19920;-52
2022/06/22 01:23:44;;;;;;;;;;;10.90;99.90;;;;;;5126194;27;20269;-53
2022/06/22 01:26:30;;;;;;;;;;;10.80;99.90;;;;;;5125692;27;19911;-52
2022/06/22 01:29:13;;;;;;;;;;;10.70;99.90;;;;;;5123357;27;19912;-52
2022/06/22 01:31:56;;;;;;;;;;;10.70;99.90;;;;;;5125879;27;19919;-52
2022/06/22 01:34:39;;;;;;;;;;;10.60;99.90;;;;;;5125276;27;19912;-52
2022/06/22 01:37:22;;;;;;;;;;;10.70;99.90;;;;;;5125611;27;19912;-52
2022/06/22 01:40:11;;;;;;;;;;;10.60;99.90;;;;;;5116195;27;19912;-52
2022/06/22 01:42:55;;;;;;;;;;;10.50;99.90;;;;;;5125573;27;20402;-52
2022/06/22 01:45:37;;;;;;;;;;;10.40;99.90;;;;;;5125569;27;20410;-53
2022/06/22 01:48:20;;;;;;;;;;;10.40;99.90;;;;;;5105266;27;20454;-52
2022/06/22 01:51:05;;;;;;;;;;;10.40;99.90;;;;;;5125961;27;19918;-52
2022/06/22 01:53:48;;;;;;;;;;;10.30;99.90;;;;;;5125968;27;20331;-52
2022/06/22 01:56:32;;;;;;;;;;;10.40;99.90;;;;;;5105190;27;19930;-51
2022/06/22 01:59:17;;;;;;;;;;;10.30;99.90;;;;;;5102876;27;19917;-52
2022/06/22 02:02:00;;;;;;;;;;;10.40;99.90;;;;;;5125944;27;19912;-51
2022/06/22 02:04:43;;;;;;;;;;;10.40;99.90;;;;;;5125418;27;19911;-52
2022/06/22 02:10:27;;;;;;;;;;;10.30;99.90;;;;;;5072667;28;19927;-52
2022/06/22 02:13:16;;;;;;;;;;;10.20;99.90;;;;;;5125838;27;20393;-52
2022/06/22 02:16:00;;;;;;;;;;;10.10;99.90;;;;;;5105261;27;20411;-54
2022/06/22 02:18:43;;;;;;;;;;;10.10;99.90;;;;;;5125919;27;19919;-52
2022/06/22 02:21:25;;;;;;;;;;;10.00;99.90;;;;;;5125995;27;19949;-52
2022/06/22 02:24:09;;;;;;;;;;;10.10;99.90;;;;;;5125901;27;19920;-52
2022/06/22 02:26:53;;;;;;;;;;;10.10;99.90;;;;;;5125502;27;19911;-52
2022/06/22 02:29:36;;;;;;;;;;;10.10;99.90;;;;;;5119688;27;20406;-51
2022/06/22 02:32:18;;;;;;;;;;;10.10;99.90;;;;;;5125837;27;20360;-53
2022/06/22 02:34:59;;;;;;;;;;;10.10;99.90;;;;;;5125852;27;19912;-52
2022/06/22 02:37:41;;;;;;;;;;;10.10;99.90;;;;;;5125731;27;20319;-52
2022/06/22 02:40:23;;;;;;;;;;;10.10;99.90;;;;;;5093216;27;19913;-53
2022/06/22 02:46:00;;;;;;;;;;;10.00;99.90;;;;;;5125851;27;19912;-52
2022/06/22 02:48:42;;;;;;;;;;;10.00;99.90;;;;;;5105558;27;19924;-52
2022/06/22 02:51:24;;;;;;;;;;;10.10;99.90;;;;;;5105673;27;19912;-52
2022/06/22 02:54:06;;;;;;;;;;;10.10;99.90;;;;;;5126250;27;20304;-52
2022/06/22 02:56:49;;;;;;;;;;;10.10;99.90;;;;;;5125364;27;19939;-53
2022/06/22 02:59:29;;;;;;;;;;;10.20;99.90;;;;;;5121283;27;19919;-52
2022/06/22 03:02:09;;;;;;;;;;;10.20;99.90;;;;;;5126182;27;19912;-52
2022/06/22 03:04:51;;;;;;;;;;;10.30;99.90;;;;;;5103458;27;19920;-52
2022/06/22 03:07:32;;;;;;;;;;;10.30;99.90;;;;;;5125757;27;20578;-51
2022/06/22 03:10:21;;;;;;;;;;;10.40;99.90;;;;;;5115277;27;19912;-51
2022/06/22 03:13:02;;;;;;;;;;;10.40;99.90;;;;;;5126581;27;20327;-51
2022/06/22 03:15:43;;;;;;;;;;;10.50;99.90;;;;;;5124362;27;19922;-52
2022/06/22 03:18:26;;;;;;;;;;;10.50;99.90;;;;;;5106380;27;20503;-51
2022/06/22 03:21:07;;;;;;;;;;;10.60;99.90;;;;;;5126785;27;19915;-52
2022/06/22 03:23:49;;;;;;;;;;;10.70;99.90;;;;;;5126380;27;19911;-52
2022/06/22 03:26:32;;;;;;;;;;;10.80;99.90;;;;;;5125883;27;19912;-52
2022/06/22 03:29:16;;;;;;;;;;;10.90;99.90;;;;;;5123552;27;19918;-52
2022/06/22 03:31:57;;;;;;;;;;;11.00;99.90;;;;;;5105802;27;19969;-52
2022/06/22 03:34:39;;;;;;;;;;;11.10;99.90;;;;;;5105570;27;19926;-53
2022/06/22 03:37:21;;;;;;;;;;;11.30;99.90;;;;;;5126015;27;19912;-52
2022/06/22 03:40:04;;;;;;;;;;;11.40;99.90;;;;;;5116407;27;19916;-51
2022/06/22 03:42:45;;;;;;;;;;;11.70;99.90;;;;;;5126045;27;19912;-52
2022/06/22 03:45:28;;;;;;;;;;;11.90;99.90;;;;;;5126045;27;19915;-52
2022/06/22 03:48:12;;;;;;;;;;;12.10;99.90;;;;;;5126458;27;19912;-51
2022/06/22 03:50:56;;;;;;;;;;;12.40;99.90;;;;;;5105590;27;19946;-52
2022/06/22 03:53:38;;;;;;;;;;;12.50;99.90;;;;;;5125815;27;19918;-51
2022/06/22 03:56:20;;;;;;;;;;;12.60;99.90;;;;;;5122232;27;20316;-52
2022/06/22 03:59:02;;;;;;;;;;;12.80;99.90;;;;;;5103449;27;20590;-51
2022/06/22 04:01:42;;;;;;;;;;;13.00;99.90;;;;;;5104224;27;19946;-51
2022/06/22 04:04:23;;;;;;;;;;;13.20;99.90;;;;;;5126223;27;19912;-52
2022/06/22 04:07:04;;;;;;;;;;;13.40;99.90;;;;;;5104733;27;19926;-52
2022/06/22 04:09:48;;;;;;;;;;;13.60;99.90;;;;;;5118807;27;19912;-52
2022/06/22 04:12:32;;;;;;;;;;;13.80;99.90;;;;;;5124566;27;19916;-51
2022/06/22 04:15:20;;;;;;;;;;;14.30;99.90;;;;;;5125638;27;20379;-52
2022/06/22 04:18:02;;;;;;;;;;;15.50;99.90;;;;;;5105211;27;19912;-51
2022/06/22 04:20:52;;;;;;;;;;;17.00;99.90;;;;;;5125669;27;19912;-52
2022/06/22 04:23:37;;;;;;;;;;;18.10;99.90;;;;;;5125757;27;19916;-52
2022/06/22 04:26:23;;;;;;;;;;;18.90;99.90;;;;;;5089990;27;19916;-52
2022/06/22 04:29:08;;;;;;;;;;;19.70;99.90;;;;;;5124137;27;19911;-51
2022/06/22 04:31:52;;;;;;;;;;;20.60;89.60;;;;;;5125158;27;19915;-52
2022/06/22 04:34:37;;;;;;;;;;;21.10;70.60;;;;;;5125707;27;20343;-51
2022/06/22 04:37:25;;;;;;;;;;;21.70;62.50;;;;;;5125306;27;19916;-51
2022/06/22 04:40:22;;;;;;;;;;;22.40;59.40;;;;;;5125348;27;19911;-51
2022/06/22 04:43:04;;;;;;;;;;;22.30;59.90;;;;;;5125728;27;19922;-51
2022/06/22 04:45:46;;;;;;;;;;;21.80;59.60;;;;;;5104169;27;19938;-51
2022/06/22 04:48:28;;;;;;;;;;;21.60;59.80;;;;;;5125855;27;19919;-51
2022/06/22 04:51:14;;;;;;;;;;;21.20;64.00;;;;;;5105715;27;20324;-51
2022/06/22 04:53:56;;;;;;;;;;;21.20;64.80;;;;;;5085451;28;19912;-52
2022/06/22 04:56:39;;;;;;;;;;;21.60;61.20;;;;;;5125790;27;20325;-51
2022/06/22 04:59:21;;;;;;;;;;;21.50;60.80;;;;;;5101853;27;20325;-51
2022/06/22 05:02:02;;;;;;;;;;;21.20;66.40;;;;;;5127544;27;19912;-51
2022/06/22 05:04:45;;;;;;;;;;;20.80;70.50;;;;;;5104750;27;19926;-51
2022/06/22 05:07:30;;;;;;;;;;;20.50;69.10;;;;;;5125179;27;20348;-51
2022/06/22 05:10:15;;;;;;;;;;;20.10;74.60;;;;;;5114554;27;19912;-51
2022/06/22 05:12:58;;;;;;;;;;;19.60;87.60;;;;;;5104779;27;19926;-51
2022/06/22 05:15:39;;;;;;;;;;;19.00;99.90;;;;;;5125138;27;19912;-51
2022/06/22 05:18:21;;;;;;;;;;;18.70;99.90;;;;;;5125609;27;20555;-51
2022/06/22 05:21:06;;;;;;;;;;;18.80;99.90;;;;;;5107496;27;20369;-51
2022/06/22 05:23:49;;;;;;;;;;;18.80;99.90;;;;;;5104756;27;19918;-51
2022/06/22 05:26:31;;;;;;;;;;;18.80;99.90;;;;;;5124951;27;19916;-51
2022/06/22 05:29:13;;;;;;;;;;;19.70;99.90;;;;;;5122878;27;19912;-52
2022/06/22 05:31:54;;;;;;;;;;;20.70;91.90;;;;;;5118840;27;19912;-51
2022/06/22 05:34:36;;;;;;;;;;;21.80;71.70;;;;;;5124882;27;19945;-51
2022/06/22 05:37:20;;;;;;;;;;;22.60;63.70;;;;;;5125420;27;19945;-51
2022/06/22 05:40:00;;;;;;;;;;;22.20;61.30;;;;;;5116448;27;19919;-51
2022/06/22 05:42:40;;;;;;;;;;;21.40;67.10;;;;;;5168896;27;20398;-51
2022/06/22 05:45:22;;;;;;;;;;;20.40;77.10;;;;;;5125838;27;20316;-51
2022/06/22 05:48:04;;;;;;;;;;;19.80;94.20;;;;;;5111888;27;20396;-51
2022/06/22 05:50:47;;;;;;;;;;;19.90;96.50;;;;;;5110068;27;19918;-51
2022/06/22 05:53:30;;;;;;;;;;;20.30;93.40;;;;;;5126070;27;19926;-51
2022/06/22 05:56:15;;;;;;;;;;;20.70;78.30;;;;;;5146247;27;19927;-52
2022/06/22 05:58:58;;;;;;;;;;;20.90;67.90;;;;;;5125833;27;20354;-51
2022/06/22 06:01:42;;;;;;;;;;;21.30;64.60;;;;;;5125656;27;19915;-51
2022/06/22 06:04:27;;;;;;;;;;;21.40;65.20;;;;;;5125784;27;19911;-52
2022/06/22 06:07:11;;;;;;;;;;;21.60;65.70;;;;;;5105065;27;19912;-51
2022/06/22 06:09:52;;;;;;;;;;;21.70;62.30;;;;;;5117610;27;19920;-51
2022/06/22 06:12:34;;;;;;;;;;;21.50;62.90;;;;;;5125735;27;20286;-51
2022/06/22 06:15:15;;;;;;;;;;;21.60;63.40;;;;;;5126537;27;19915;-51
2022/06/22 06:17:58;;;;;;;;;;;21.90;62.60;;;;;;5125661;27;20377;-51
2022/06/22 06:20:39;;;;;;;;;;;22.20;60.00;;;;;;5090744;27;20345;-53
2022/06/22 06:23:22;;;;;;;;;;;22.40;59.30;;;;;;5068597;28;19916;-52
2022/06/22 06:29:04;;;;;;;;;;;22.70;58.80;;;;;;5116360;27;19926;-52
2022/06/22 06:31:49;;;;;;;;;;;22.70;59.80;;;;;;5105517;27;19912;-52
2022/06/22 06:34:32;;;;;;;;;;;22.80;57.70;;;;;;5125720;27;19911;-52
2022/06/22 06:37:17;;;;;;;;;;;23.00;55.50;;;;;;5125616;27;19916;-52
2022/06/22 06:39:58;;;;;;;;;;;23.30;55.20;;;;;;5116655;27;20401;-52
2022/06/22 06:42:41;;;;;;;;;;;23.60;52.60;;;;;;5125773;27;19916;-52
2022/06/22 06:45:23;;;;;;;;;;;23.50;52.90;;;;;;5105304;27;19912;-52
2022/06/22 06:48:07;;;;;;;;;;;23.50;54.10;;;;;;5071706;28;20287;-51
2022/06/22 06:50:48;;;;;;;;;;;23.40;55.10;;;;;;5146483;27;20973;-53
2022/06/22 06:53:32;;;;;;;;;;;23.50;55.50;;;;;;5125878;27;19916;-52
2022/06/22 06:56:15;;;;;;;;;;;23.80;54.30;;;;;;5126166;27;19916;-53
2022/06/22 06:58:58;;;;;;;;;;;24.00;53.80;;;;;;5125790;27;19916;-54
2022/06/22 07:01:39;;;;;;;;;;;24.00;52.30;;;;;;5125546;27;19922;-54
2022/06/22 07:04:20;;;;;;;;;;;23.80;53.30;;;;;;5124406;27;20172;-53
2022/06/22 07:07:03;;;;;;;;;;;23.50;54.60;;;;;;5125427;27;19916;-53
2022/06/22 07:09:44;;;;;;;;;;;23.70;53.90;;;;;;5119085;27;19912;-55
2022/06/22 07:12:27;;;;;;;;;;;24.00;52.50;;;;;;5125835;27;20266;-54
2022/06/22 07:15:14;;;;;;;;;;;24.40;51.60;;;;;;5126068;27;19916;-53
2022/06/22 07:17:55;;;;;;;;;;;24.60;50.20;;;;;;5125626;27;19912;-53
2022/06/22 07:20:37;;;;;;;;;;;24.30;50.30;;;;;;5111383;27;19912;-54
2022/06/22 07:23:22;;;;;;;;;;;24.00;51.10;;;;;;5085049;28;19912;-52
2022/06/22 07:26:05;;;;;;;;;;;24.20;51.80;;;;;;5125934;27;19912;-53
2022/06/22 07:28:49;;;;;;;;;;;24.40;52.30;;;;;;5125553;27;19912;-54
2022/06/22 07:31:31;;;;;;;;;;;24.70;52.00;;;;;;5105218;27;19912;-54
2022/06/22 07:34:14;;;;;;;;;;;25.00;52.30;;;;;;5125765;27;20419;-53
2022/06/22 07:36:56;;;;;;;;;;;25.00;50.20;;;;;;5125543;27;19953;-53
2022/06/22 07:39:39;;;;;;;;;;;24.90;53.70;;;;;;5119552;27;19912;-53
2022/06/22 07:42:20;;;;;;;;;;;24.80;51.20;;;;;;5105471;27;19953;-54
2022/06/22 07:44:59;;;;;;;;;;;24.50;53.20;;;;;;5125899;27;19920;-53
2022/06/22 07:47:42;;;;;;;;;;;24.30;52.40;;;;;;5125438;27;19912;-51
2022/06/22 07:50:24;;;;;;;;;;;24.00;53.40;;;;;;5113476;27;19916;-52
2022/06/22 07:53:07;;;;;;;;;;;23.90;53.70;;;;;;5125982;27;19934;-52
2022/06/22 07:55:50;;;;;;;;;;;23.90;54.50;;;;;;5125534;27;19912;-54
2022/06/22 07:58:32;;;;;;;;;;;23.80;54.20;;;;;;5125824;27;19918;-53
2022/06/22 08:01:15;;;;;;;;;;;24.00;53.90;;;;;;5105512;27;19926;-53
2022/06/22 08:03:57;;;;;;;;;;;24.20;54.60;;;;;;5125964;27;19912;-53
2022/06/22 08:06:39;;;;;;;;;;;24.30;53.20;;;;;;5125447;27;19964;-52
2022/06/22 08:09:20;;;;;;;;;;;24.30;54.00;;;;;;5122218;27;19912;-52
2022/06/22 08:12:04;;;;;;;;;;;24.30;54.40;;;;;;5125858;27;19912;-52
2022/06/22 08:14:46;;;;;;;;;;;24.30;54.80;;;;;;5105219;27;20400;-52
2022/06/22 08:17:30;;;;;;;;;;;24.40;52.90;;;;;;5125676;27;19918;-54
2022/06/22 08:20:10;;;;;;;;;;;24.50;52.90;;;;;;5115303;27;19912;-51
2022/06/22 08:22:51;;;;;;;;;;;24.70;52.90;;;;;;5125615;27;19912;-54
2022/06/22 08:25:31;;;;;;;;;;;24.60;53.10;;;;;;5104926;27;19916;-52
2022/06/22 08:28:13;;;;;;;;;;;24.70;53.10;;;;;;5105453;27;20427;-52
2022/06/22 08:30:54;;;;;;;;;;;24.80;52.50;;;;;;5126091;27;19912;-53
2022/06/22 08:33:36;;;;;;;;;;;25.10;52.20;;;;;;5125451;27;20393;-52
2022/06/22 08:36:18;;;;;;;;;;;25.20;51.60;;;;;;5125837;27;19918;-52
2022/06/22 08:39:04;;;;;;;;;;;25.20;51.30;;;;;;5125032;27;19916;-53
2022/06/22 08:41:48;;;;;;;;;;;25.20;51.00;;;;;;5105367;27;19919;-53
2022/06/22 08:44:38;;;;;;;;;;;25.30;50.70;;;;;;5084528;28;20302;-52
2022/06/22 08:47:35;;;;;;;;;;;25.30;50.60;;;;;;5103763;27;19970;-53
2022/06/22 08:50:20;;;;;;;;;;;25.20;50.70;;;;;;5091907;27;20605;-53
2022/06/22 08:53:08;;;;;;;;;;;25.50;51.10;;;;;;5125938;27;19912;-53
2022/06/22 08:55:58;;;;;;;;;;;25.60;49.80;;;;;;5125430;27;19930;-53
2022/06/22 08:59:01;;;;;;;;;;;25.80;50.30;;;;;;5125786;27;20381;-54
2022/06/22 09:01:45;;;;;;;;;;;25.90;49.90;;;;;;5105353;27;19912;-53
2022/06/22 09:04:36;;;;;;;;;;;26.00;48.80;;;;;;5125878;27;19912;-55
2022/06/22 09:07:22;;;;;;;;;;;26.10;50.40;;;;;;5105254;27;19954;-51
2022/06/22 09:10:27;;;;;;;;;;;26.20;48.20;;;;;;5116308;27;20422;-52
2022/06/22 09:13:16;;;;;;;;;;;26.40;47.20;;;;;;5125688;27;19912;-52
2022/06/22 09:16:03;;;;;;;;;;;26.60;48.00;;;;;;5125604;27;19922;-53
2022/06/22 09:18:52;;;;;;;;;;;26.70;47.30;;;;;;5125977;27;19911;-53
2022/06/22 09:21:40;;;;;;;;;;;26.60;47.60;;;;;;5125803;27;20385;-53
2022/06/22 09:24:21;;;;;;;;;;;26.50;47.20;;;;;;5105749;27;19916;-52
2022/06/22 09:27:08;;;;;;;;;;;26.60;49.90;;;;;;5105464;27;19927;-52
2022/06/22 09:30:04;;;;;;;;;;;26.60;48.30;;;;;;5118629;27;19926;-52
2022/06/22 09:32:53;;;;;;;;;;;26.80;48.20;;;;;;5125945;27;19911;-53
2022/06/22 09:35:40;;;;;;;;;;;27.00;46.20;;;;;;5125728;27;19915;-52
2022/06/22 09:38:31;;;;;;;;;;;27.00;46.70;;;;;;5105058;27;19919;-52
2022/06/22 09:41:15;;;;;;;;;;;27.00;46.00;;;;;;5124671;27;19922;-54
2022/06/22 09:44:08;;;;;;;;;;;27.10;46.40;;;;;;5104689;27;19930;-54
2022/06/22 09:47:04;;;;;;;;;;;27.20;45.80;;;;;;5125658;27;19919;-52
2022/06/22 09:49:55;;;;;;;;;;;27.70;45.60;;;;;;5097969;27;19913;-53
2022/06/22 09:53:03;;;;;;;;;;;28.10;43.50;;;;;;5104786;27;19912;-52
2022/06/22 09:59:14;;;;;;;;;;;29.40;41.20;;;;;;5104032;27;19934;-54
2022/06/22 10:02:01;;;;;;;;;;;29.80;39.90;;;;;;5124622;27;19918;-53
2022/06/22 10:05:01;;;;;;;;;;;30.10;39.20;;;;;;5146252;27;20406;-52
2022/06/22 10:07:58;;;;;;;;;;;30.40;38.70;;;;;;5125174;27;19918;-53
2022/06/22 10:10:49;;;;;;;;;;;30.90;38.70;;;;;;5106622;27;20579;-52
2022/06/22 10:13:46;;;;;;;;;;;31.40;36.90;;;;;;5100268;27;19912;-53
2022/06/22 10:16:36;;;;;;;;;;;31.40;35.80;;;;;;5117936;27;20392;-54
2022/06/22 10:19:26;;;;;;;;;;;31.20;36.50;;;;;;5100024;27;20297;-53
2022/06/22 10:22:14;;;;;;;;;;;31.10;36.60;;;;;;5119832;27;19922;-53
2022/06/22 10:25:08;;;;;;;;;;;31.60;35.80;;;;;;5125410;27;19916;-53
2022/06/22 10:28:02;;;;;;;;;;;32.10;35.70;;;;;;5103317;27;19912;-52
2022/06/22 10:30:48;;;;;;;;;;;32.20;34.20;;;;;;5089928;27;19913;-53
2022/06/22 10:33:38;;;;;;;;;;;32.30;33.30;;;;;;5125672;27;19938;-55
2022/06/22 10:36:38;;;;;;;;;;;32.20;33.30;;;;;;5119316;27;19919;-53
2022/06/22 10:39:36;;;;;;;;;;;32.20;33.20;;;;;;5103375;27;19913;-53
2022/06/22 10:45:40;;;;;;;;;;;32.90;32.40;;;;;;5125825;27;19918;-52
2022/06/22 10:48:39;;;;;;;;;;;33.20;31.90;;;;;;5105825;27;19926;-52
2022/06/22 10:51:28;;;;;;;;;;;33.30;33.20;;;;;;5126106;27;19918;-52
2022/06/22 10:54:19;;;;;;;;;;;32.50;31.20;;;;;;5105734;27;19912;-52
2022/06/22 10:57:28;;;;;;;;;;;32.20;32.20;;;;;;5125639;27;20393;-52
2022/06/22 11:00:15;;;;;;;;;;;32.20;33.10;;;;;;5115095;27;19912;-51
2022/06/22 11:03:17;;;;;;;;;;;32.40;34.30;;;;;;5105637;27;19969;-53
2022/06/22 11:06:05;;;;;;;;;;;32.30;31.80;;;;;;5104945;27;19912;-53
2022/06/22 11:08:50;;;;;;;;;;;32.40;31.80;;;;;;5125754;27;19945;-53
2022/06/22 11:11:38;;;;;;;;;;;32.40;33.10;;;;;;5105040;27;20286;-52
2022/06/22 11:14:37;;;;;;;;;;;32.20;33.20;;;;;;5126120;27;20425;-51
2022/06/22 11:17:22;;;;;;;;;;;32.10;34.50;;;;;;5125731;27;20442;-53
2022/06/22 11:20:12;;;;;;;;;;;31.70;33.20;;;;;;5116406;27;19919;-52
2022/06/22 11:22:57;;;;;;;;;;;31.90;33.50;;;;;;5125606;27;19926;-52
2022/06/22 11:32:18;;;;;;;;;;;32.90;33.20;;;;;;5126264;27;19918;-52
2022/06/22 11:35:12;;;;;;;;;;;33.10;33.30;;;;;;5126138;27;19934;-53
2022/06/22 11:37:57;;;;;;;;;;;32.80;33.80;;;;;;5146413;27;19917;-53
2022/06/22 11:40:55;;;;;;;;;;;32.60;33.70;;;;;;5111298;27;19916;-52
2022/06/22 11:43:48;;;;;;;;;;;32.40;34.50;;;;;;5126166;27;19911;-53
2022/06/22 11:46:29;;;;;;;;;;;32.30;34.40;;;;;;5125045;27;20380;-54
2022/06/22 11:49:25;;;;;;;;;;;31.70;35.10;;;;;;5122580;27;20537;-54
2022/06/22 11:52:14;;;;;;;;;;;31.40;35.50;;;;;;5124221;27;19919;-52
2022/06/22 11:54:59;;;;;;;;;;;31.50;35.90;;;;;;5123853;27;19919;-53
2022/06/22 11:57:48;;;;;;;;;;;31.50;35.40;;;;;;5124256;27;19918;-54
2022/06/22 12:00:34;;;;;;;;;;;32.00;36.40;;;;;;5090273;27;19930;-54
2022/06/22 12:03:27;;;;;;;;;;;32.60;36.00;;;;;;5104709;27;19926;-52
2022/06/22 12:06:17;;;;;;;;;;;33.10;33.50;;;;;;5124632;27;19919;-55
2022/06/22 12:09:03;;;;;;;;;;;33.20;35.40;;;;;;5124563;27;20280;-52
2022/06/22 12:11:49;;;;;;;;;;;33.50;31.60;;;;;;5125829;27;19918;-52
2022/06/22 12:17:42;;;;;;;;;;;33.80;33.00;;;;;;5125257;27;19918;-52
2022/06/22 12:20:33;;;;;;;;;;;34.00;32.40;;;;;;5093486;27;19946;-53
2022/06/22 12:23:20;;;;;;;;;;;34.00;31.00;;;;;;5125966;27;19967;-53
2022/06/22 12:26:08;;;;;;;;;;;34.20;32.90;;;;;;5125225;27;20586;-52
2022/06/22 12:28:56;;;;;;;;;;;33.90;33.10;;;;;;5083261;27;19958;-53
2022/06/22 12:31:38;;;;;;;;;;;33.70;33.80;;;;;;5124609;27;20399;-52
2022/06/22 12:34:25;;;;;;;;;;;33.20;33.60;;;;;;5124914;27;19920;-53
2022/06/22 12:37:10;;;;;;;;;;;32.90;35.30;;;;;;5125472;27;19926;-52
2022/06/22 12:39:53;;;;;;;;;;;33.00;35.50;;;;;;5117778;27;19912;-53
2022/06/22 12:42:50;;;;;;;;;;;33.10;34.60;;;;;;5126064;27;19918;-52
2022/06/22 12:45:35;;;;;;;;;;;33.10;35.30;;;;;;5125773;27;19911;-53
2022/06/22 12:48:32;;;;;;;;;;;33.30;35.60;;;;;;5125908;27;19918;-53
2022/06/22 12:51:23;;;;;;;;;;;33.30;34.60;;;;;;5125267;27;19934;-54
2022/06/22 12:54:05;;;;;;;;;;;33.70;33.80;;;;;;5103759;27;20385;-54
2022/06/22 12:56:49;;;;;;;;;;;33.80;33.40;;;;;;5105250;27;19919;-54
2022/06/22 12:59:31;;;;;;;;;;;33.70;32.80;;;;;;5121265;27;19919;-52
2022/06/22 13:02:13;;;;;;;;;;;33.70;33.60;;;;;;5125913;27;19912;-54
2022/06/22 13:04:57;;;;;;;;;;;33.80;34.40;;;;;;5146659;27;19917;-53
2022/06/22 13:07:41;;;;;;;;;;;34.00;33.30;;;;;;5103523;27;19926;-52
2022/06/22 13:10:23;;;;;;;;;;;34.40;31.20;;;;;;5113618;27;19919;-53
2022/06/22 13:13:07;;;;;;;;;;;34.60;31.50;;;;;;5125634;27;19911;-52
2022/06/22 13:15:52;;;;;;;;;;;34.30;32.50;;;;;;5125239;27;20415;-53
2022/06/22 13:18:36;;;;;;;;;;;34.00;32.10;;;;;;5124327;27;20254;-52
2022/06/22 13:21:21;;;;;;;;;;;33.80;34.00;;;;;;5123255;27;20300;-53
2022/06/22 13:24:07;;;;;;;;;;;33.20;35.30;;;;;;5101690;27;19912;-53
2022/06/22 13:26:52;;;;;;;;;;;32.90;35.20;;;;;;5122073;27;19918;-52
2022/06/22 13:29:34;;;;;;;;;;;32.70;36.90;;;;;;5117704;27;20126;-54
2022/06/22 13:32:14;;;;;;;;;;;32.10;37.40;;;;;;5178176;27;19911;-54
2022/06/22 13:34:56;;;;;;;;;;;31.60;39.10;;;;;;5103772;27;19912;-51
2022/06/22 13:37:41;;;;;;;;;;;31.40;39.90;;;;;;5122899;27;19938;-53
2022/06/22 13:40:27;;;;;;;;;;;31.40;39.80;;;;;;5090266;27;19912;-52
2022/06/22 13:43:26;;;;;;;;;;;31.60;38.90;;;;;;5124592;27;19918;-54
2022/06/22 13:46:17;;;;;;;;;;;31.60;37.80;;;;;;5128835;27;19922;-52
2022/06/22 13:49:01;;;;;;;;;;;31.60;39.90;;;;;;5124940;27;19916;-53
2022/06/22 13:51:52;;;;;;;;;;;31.40;39.90;;;;;;5125625;27;20384;-51
2022/06/22 13:54:49;;;;;;;;;;;31.30;40.10;;;;;;5125992;27;19912;-51
2022/06/22 13:57:35;;;;;;;;;;;31.30;39.80;;;;;;5125302;27;19918;-53
2022/06/22 14:00:17;;;;;;;;;;;31.00;40.20;;;;;;5094105;27;20138;-53
2022/06/22 14:03:02;;;;;;;;;;;30.90;41.50;;;;;;5125722;27;19967;-51
2022/06/22 14:05:46;;;;;;;;;;;30.80;41.60;;;;;;5125599;27;19916;-51
2022/06/22 14:08:43;;;;;;;;;;;30.80;41.80;;;;;;5125574;27;20415;-52
2022/06/22 14:11:28;;;;;;;;;;;31.00;40.90;;;;;;5126236;27;19918;-53
2022/06/22 14:14:14;;;;;;;;;;;31.00;40.70;;;;;;5105263;27;19926;-53
2022/06/22 14:16:56;;;;;;;;;;;30.80;40.90;;;;;;5105156;27;19953;-52
2022/06/22 14:19:41;;;;;;;;;;;30.60;42.20;;;;;;5099474;27;19927;-51
2022/06/22 14:22:22;;;;;;;;;;;30.70;43.20;;;;;;5126285;27;19922;-52
2022/06/22 14:25:02;;;;;;;;;;;30.80;42.00;;;;;;5126171;27;19918;-51
2022/06/22 14:27:49;;;;;;;;;;;31.20;42.00;;;;;;5125618;27;20377;-51
2022/06/22 14:30:38;;;;;;;;;;;31.70;42.60;;;;;;5125788;27;20121;-51
2022/06/22 14:33:30;;;;;;;;;;;32.30;40.00;;;;;;5126037;27;20399;-52
2022/06/22 14:36:21;;;;;;;;;;;32.50;40.70;;;;;;5126031;27;20339;-52
2022/06/22 14:39:05;;;;;;;;;;;32.90;39.30;;;;;;5126278;27;19915;-52
2022/06/22 14:41:51;;;;;;;;;;;32.90;39.40;;;;;;5146503;27;19911;-53
2022/06/22 14:44:41;;;;;;;;;;;32.40;40.50;;;;;;5125777;27;19918;-52
2022/06/22 14:47:24;;;;;;;;;;;32.00;42.50;;;;;;5125821;27;19916;-52
2022/06/22 14:50:14;;;;;;;;;;;31.60;43.50;;;;;;5124606;27;20191;-52
2022/06/22 14:52:57;;;;;;;;;;;30.80;44.90;;;;;;5125431;27;19912;-52
2022/06/22 14:55:38;;;;;;;;;;;30.60;44.90;;;;;;5124714;27;19918;-53
2022/06/22 14:58:20;;;;;;;;;;;30.30;47.10;;;;;;5124811;27;19935;-52
2022/06/22 15:01:04;;;;;;;;;;;30.00;46.30;;;;;;5105036;27;19926;-52
2022/06/22 15:03:49;;;;;;;;;;;29.60;46.60;;;;;;5125235;27;19918;-52
2022/06/22 15:06:43;;;;;;;;;;;29.20;48.80;;;;;;5125153;27;19918;-52
2022/06/22 15:09:27;;;;;;;;;;;28.80;47.50;;;;;;5101144;27;19912;-52
2022/06/22 15:15:20;;;;;;;;;;;28.30;50.10;;;;;;5104110;27;19912;-53
2022/06/22 15:18:05;;;;;;;;;;;28.00;51.10;;;;;;5089874;27;20443;-52
2022/06/22 15:20:49;;;;;;;;;;;28.00;52.00;;;;;;5108784;27;19938;-51
2022/06/22 15:23:31;;;;;;;;;;;28.10;52.70;;;;;;5103808;27;19926;-54
2022/06/22 15:26:15;;;;;;;;;;;27.90;51.10;;;;;;5125160;27;19918;-51
2022/06/22 15:28:57;;;;;;;;;;;27.70;51.90;;;;;;5124716;27;19912;-55
2022/06/22 15:31:44;;;;;;;;;;;27.60;53.00;;;;;;5105593;27;19926;-51
2022/06/22 15:34:32;;;;;;;;;;;27.50;54.40;;;;;;5126006;27;19918;-51
2022/06/22 15:37:37;;;;;;;;;;;27.30;54.80;;;;;;5105109;27;20274;-52
2022/06/22 15:40:32;;;;;;;;;;;27.10;54.70;;;;;;5114131;27;19919;-54
2022/06/22 15:43:15;;;;;;;;;;;27.00;54.60;;;;;;5123202;27;19912;-55
2022/06/22 15:46:06;;;;;;;;;;;26.90;56.40;;;;;;5102818;27;20185;-52
2022/06/22 15:48:52;;;;;;;;;;;27.00;57.10;;;;;;5124546;27;20309;-53
2022/06/22 15:51:35;;;;;;;;;;;26.90;57.50;;;;;;5124479;27;20111;-54
2022/06/22 15:54:38;;;;;;;;;;;26.90;57.60;;;;;;5125293;27;19912;-51
2022/06/22 15:57:22;;;;;;;;;;;26.90;58.20;;;;;;5125155;27;19912;-52
2022/06/22 16:00:06;;;;;;;;;;;26.70;58.90;;;;;;5125194;27;19912;-54
2022/06/22 16:02:54;;;;;;;;;;;26.60;59.70;;;;;;5104594;27;19916;-51
2022/06/22 16:05:40;;;;;;;;;;;26.50;61.50;;;;;;5125095;27;19912;-51
2022/06/22 16:08:26;;;;;;;;;;;26.40;65.60;;;;;;5125359;27;19918;-54
2022/06/22 16:14:17;;;;;;;;;;;26.30;70.90;;;;;;5125254;27;19912;-51
2022/06/22 16:16:58;;;;;;;;;;;26.20;81.10;;;;;;5124471;27;19915;-52
2022/06/22 16:19:43;;;;;;;;;;;26.20;87.00;;;;;;5118809;27;20456;-53
2022/06/22 16:22:26;;;;;;;;;;;26.30;90.40;;;;;;5125234;27;19918;-51
2022/06/22 16:25:11;;;;;;;;;;;26.30;87.60;;;;;;5104322;27;20446;-51
2022/06/22 16:27:55;;;;;;;;;;;26.30;80.20;;;;;;5124552;27;19911;-53
2022/06/22 16:30:51;;;;;;;;;;;26.20;95.60;;;;;;5090053;27;19927;-52
2022/06/22 16:33:34;;;;;;;;;;;26.10;99.90;;;;;;5125158;27;19912;-53